sensor_id;sensor_type;location;lat;lon;timestamp;P1;durP1;ratioP1;P2;durP2;ratioP2
15496;SDS011;7850;52.204;5.942;2023-08-06T00:04:15;0.21;;;0.21;;
15496;SDS011;7850;52.204;5.942;2023-08-06T00:04:15;0.30;;;0.30;;
15496;SDS011;7850;52.204;5.942;2023-08-06T00:04:16;0.30;;;0.30;;
15496;SDS011;7850;52.204;5.942;2023-08-06T00:04:16;0.29;;;0.29;;
15496;SDS011;7850;52.204;5.942;2023-08-06T00:04:46;0.22;;;0.22;;
15496;SDS011;7850;52.204;5.942;2023-08-06T00:05:46;0.30;;;0.30;;
15496;SDS011;7850;52.204;5.942;2023-08-06T00:06:46;0.34;;;0.34;;
15496;SDS011;7850;52.204;5.942;2023-08-06T00:07:47;0.30;;;0.30;;
15496;SDS011;7850;52.204;5.942;2023-08-06T00:08:47;0.30;;;0.30;;
15496;SDS011;7850;52.204;5.942;2023-08-06T00:09:47;0.39;;;0.39;;
15496;SDS011;7850;52.204;5.942;2023-08-06T00:10:47;0.26;;;0.26;;
15496;SDS011;7850;52.204;5.942;2023-08-06T00:11:47;0.29;;;0.29;;
15496;SDS011;7850;52.204;5.942;2023-08-06T00:12:47;0.35;;;0.35;;
15496;SDS011;7850;52.204;5.942;2023-08-06T00:13:47;0.37;;;0.37;;
15496;SDS011;7850;52.204;5.942;2023-08-06T00:14:49;0.30;;;0.30;;
15496;SDS011;7850;52.204;5.942;2023-08-06T00:15:47;0.33;;;0.33;;
15496;SDS011;7850;52.204;5.942;2023-08-06T00:16:47;0.30;;;0.30;;
15496;SDS011;7850;52.204;5.942;2023-08-06T00:17:47;0.34;;;0.34;;
15496;SDS011;7850;52.204;5.942;2023-08-06T00:18:47;0.38;;;0.38;;
15496;SDS011;7850;52.204;5.942;2023-08-06T00:19:47;0.30;;;0.30;;
15496;SDS011;7850;52.204;5.942;2023-08-06T00:20:47;0.30;;;0.30;;
15496;SDS011;7850;52.204;5.942;2023-08-06T00:21:47;0.37;;;0.37;;
15496;SDS011;7850;52.204;5.942;2023-08-06T00:22:47;0.30;;;0.30;;
15496;SDS011;7850;52.204;5.942;2023-08-06T00:23:48;0.30;;;0.30;;
15496;SDS011;7850;52.204;5.942;2023-08-06T00:24:48;0.32;;;0.32;;
15496;SDS011;7850;52.204;5.942;2023-08-06T00:25:48;0.37;;;0.37;;
15496;SDS011;7850;52.204;5.942;2023-08-06T00:26:48;0.30;;;0.30;;
15496;SDS011;7850;52.204;5.942;2023-08-06T00:27:48;0.30;;;0.30;;
15496;SDS011;7850;52.204;5.942;2023-08-06T00:28:48;0.30;;;0.30;;
15496;SDS011;7850;52.204;5.942;2023-08-06T00:29:48;0.39;;;0.39;;
15496;SDS011;7850;52.204;5.942;2023-08-06T00:30:51;0.30;;;0.30;;
15496;SDS011;7850;52.204;5.942;2023-08-06T00:31:48;0.30;;;0.30;;
15496;SDS011;7850;52.204;5.942;2023-08-06T00:32:48;0.30;;;0.30;;
15496;SDS011;7850;52.204;5.942;2023-08-06T00:33:48;0.30;;;0.30;;
15496;SDS011;7850;52.204;5.942;2023-08-06T00:34:48;0.30;;;0.30;;
15496;SDS011;7850;52.204;5.942;2023-08-06T00:35:48;0.20;;;0.20;;
15496;SDS011;7850;52.204;5.942;2023-08-06T00:36:48;0.30;;;0.30;;
15496;SDS011;7850;52.204;5.942;2023-08-06T00:37:48;0.36;;;0.36;;
15496;SDS011;7850;52.204;5.942;2023-08-06T00:38:48;0.30;;;0.30;;
15496;SDS011;7850;52.204;5.942;2023-08-06T00:39:49;0.29;;;0.29;;
15496;SDS011;7850;52.204;5.942;2023-08-06T00:40:49;0.30;;;0.30;;
15496;SDS011;7850;52.204;5.942;2023-08-06T00:41:49;0.30;;;0.30;;
15496;SDS011;7850;52.204;5.942;2023-08-06T00:42:49;0.40;;;0.40;;
15496;SDS011;7850;52.204;5.942;2023-08-06T00:43:49;0.30;;;0.30;;
15496;SDS011;7850;52.204;5.942;2023-08-06T00:44:49;0.33;;;0.33;;
15496;SDS011;7850;52.204;5.942;2023-08-06T00:45:49;0.31;;;0.31;;
15496;SDS011;7850;52.204;5.942;2023-08-06T00:46:49;0.30;;;0.30;;
15496;SDS011;7850;52.204;5.942;2023-08-06T00:47:49;0.38;;;0.38;;
15496;SDS011;7850;52.204;5.942;2023-08-06T00:48:49;0.30;;;0.30;;
15496;SDS011;7850;52.204;5.942;2023-08-06T00:49:49;0.30;;;0.30;;
15496;SDS011;7850;52.204;5.942;2023-08-06T00:50:49;0.30;;;0.30;;
15496;SDS011;7850;52.204;5.942;2023-08-06T00:51:49;0.30;;;0.30;;
15496;SDS011;7850;52.204;5.942;2023-08-06T00:52:49;0.30;;;0.30;;
15496;SDS011;7850;52.204;5.942;2023-08-06T00:53:50;0.27;;;0.27;;
15496;SDS011;7850;52.204;5.942;2023-08-06T00:54:50;0.30;;;0.30;;
15496;SDS011;7850;52.204;5.942;2023-08-06T00:55:50;0.31;;;0.31;;
15496;SDS011;7850;52.204;5.942;2023-08-06T00:56:50;0.30;;;0.30;;
15496;SDS011;7850;52.204;5.942;2023-08-06T00:57:50;0.32;;;0.32;;
15496;SDS011;7850;52.204;5.942;2023-08-06T00:58:50;0.30;;;0.30;;
15496;SDS011;7850;52.204;5.942;2023-08-06T00:59:50;0.38;;;0.38;;
15496;SDS011;7850;52.204;5.942;2023-08-06T01:00:50;0.40;;;0.40;;
15496;SDS011;7850;52.204;5.942;2023-08-06T01:01:50;0.36;;;0.36;;
15496;SDS011;7850;52.204;5.942;2023-08-06T01:02:50;0.37;;;0.37;;
15496;SDS011;7850;52.204;5.942;2023-08-06T01:03:50;0.30;;;0.30;;
15496;SDS011;7850;52.204;5.942;2023-08-06T01:04:50;0.31;;;0.31;;
15496;SDS011;7850;52.204;5.942;2023-08-06T01:05:50;0.30;;;0.30;;
15496;SDS011;7850;52.204;5.942;2023-08-06T01:06:52;0.30;;;0.30;;
15496;SDS011;7850;52.204;5.942;2023-08-06T01:07:55;0.30;;;0.30;;
15496;SDS011;7850;52.204;5.942;2023-08-06T01:08:52;0.30;;;0.30;;
15496;SDS011;7850;52.204;5.942;2023-08-06T01:09:53;0.30;;;0.30;;
15496;SDS011;7850;52.204;5.942;2023-08-06T01:10:53;0.40;;;0.40;;
15496;SDS011;7850;52.204;5.942;2023-08-06T01:11:53;0.30;;;0.30;;
15496;SDS011;7850;52.204;5.942;2023-08-06T01:12:52;0.30;;;0.30;;
15496;SDS011;7850;52.204;5.942;2023-08-06T01:13:53;0.30;;;0.30;;
15496;SDS011;7850;52.204;5.942;2023-08-06T01:14:52;0.29;;;0.29;;
15496;SDS011;7850;52.204;5.942;2023-08-06T01:15:52;0.40;;;0.40;;
15496;SDS011;7850;52.204;5.942;2023-08-06T01:16:51;0.41;;;0.41;;
15496;SDS011;7850;52.204;5.942;2023-08-06T01:17:51;0.40;;;0.40;;
15496;SDS011;7850;52.204;5.942;2023-08-06T01:18:51;0.40;;;0.40;;
15496;SDS011;7850;52.204;5.942;2023-08-06T01:19:51;0.33;;;0.33;;
15496;SDS011;7850;52.204;5.942;2023-08-06T01:20:51;0.40;;;0.40;;
15496;SDS011;7850;52.204;5.942;2023-08-06T01:21:51;0.30;;;0.30;;
15496;SDS011;7850;52.204;5.942;2023-08-06T01:22:51;0.59;;;0.59;;
15496;SDS011;7850;52.204;5.942;2023-08-06T01:23:51;1.00;;;0.98;;
15496;SDS011;7850;52.204;5.942;2023-08-06T01:24:52;0.38;;;0.38;;
15496;SDS011;7850;52.204;5.942;2023-08-06T01:25:59;0.31;;;0.31;;
15496;SDS011;7850;52.204;5.942;2023-08-06T01:26:54;0.37;;;0.37;;
15496;SDS011;7850;52.204;5.942;2023-08-06T01:27:52;0.40;;;0.40;;
15496;SDS011;7850;52.204;5.942;2023-08-06T01:28:54;0.40;;;0.40;;
15496;SDS011;7850;52.204;5.942;2023-08-06T01:29:54;0.40;;;0.40;;
15496;SDS011;7850;52.204;5.942;2023-08-06T01:30:52;0.40;;;0.40;;
15496;SDS011;7850;52.204;5.942;2023-08-06T01:31:52;0.34;;;0.34;;
15496;SDS011;7850;52.204;5.942;2023-08-06T01:32:53;0.40;;;0.40;;
15496;SDS011;7850;52.204;5.942;2023-08-06T01:33:52;0.43;;;0.43;;
15496;SDS011;7850;52.204;5.942;2023-08-06T01:34:52;0.50;;;0.50;;
15496;SDS011;7850;52.204;5.942;2023-08-06T01:35:52;0.38;;;0.38;;
15496;SDS011;7850;52.204;5.942;2023-08-06T01:36:52;0.21;;;0.21;;
15496;SDS011;7850;52.204;5.942;2023-08-06T01:37:52;0.31;;;0.31;;
15496;SDS011;7850;52.204;5.942;2023-08-06T01:38:52;0.24;;;0.24;;
15496;SDS011;7850;52.204;5.942;2023-08-06T01:39:52;0.49;;;0.49;;
15496;SDS011;7850;52.204;5.942;2023-08-06T01:40:52;0.35;;;0.35;;
15496;SDS011;7850;52.204;5.942;2023-08-06T01:41:52;0.70;;;0.70;;
15496;SDS011;7850;52.204;5.942;2023-08-06T01:42:52;0.40;;;0.40;;
15496;SDS011;7850;52.204;5.942;2023-08-06T01:43:52;0.30;;;0.30;;
15496;SDS011;7850;52.204;5.942;2023-08-06T01:44:52;0.40;;;0.40;;
15496;SDS011;7850;52.204;5.942;2023-08-06T01:45:52;0.64;;;0.64;;
15496;SDS011;7850;52.204;5.942;2023-08-06T01:46:52;0.40;;;0.40;;
15496;SDS011;7850;52.204;5.942;2023-08-06T01:47:52;0.21;;;0.21;;
15496;SDS011;7850;52.204;5.942;2023-08-06T01:48:53;0.22;;;0.22;;
15496;SDS011;7850;52.204;5.942;2023-08-06T01:49:53;0.20;;;0.20;;
15496;SDS011;7850;52.204;5.942;2023-08-06T01:50:53;0.30;;;0.30;;
15496;SDS011;7850;52.204;5.942;2023-08-06T01:51:53;0.22;;;0.22;;
15496;SDS011;7850;52.204;5.942;2023-08-06T01:52:53;0.54;;;0.54;;
15496;SDS011;7850;52.204;5.942;2023-08-06T01:53:53;0.46;;;0.46;;
15496;SDS011;7850;52.204;5.942;2023-08-06T01:54:53;0.50;;;0.50;;
15496;SDS011;7850;52.204;5.942;2023-08-06T01:55:53;0.31;;;0.31;;
15496;SDS011;7850;52.204;5.942;2023-08-06T01:56:53;0.30;;;0.30;;
15496;SDS011;7850;52.204;5.942;2023-08-06T01:57:53;0.50;;;0.50;;
15496;SDS011;7850;52.204;5.942;2023-08-06T01:58:53;0.35;;;0.35;;
15496;SDS011;7850;52.204;5.942;2023-08-06T01:59:53;0.32;;;0.32;;
15496;SDS011;7850;52.204;5.942;2023-08-06T02:00:53;0.33;;;0.33;;
15496;SDS011;7850;52.204;5.942;2023-08-06T02:01:53;0.25;;;0.25;;
15496;SDS011;7850;52.204;5.942;2023-08-06T02:02:54;0.37;;;0.37;;
15496;SDS011;7850;52.204;5.942;2023-08-06T02:03:54;0.30;;;0.30;;
15496;SDS011;7850;52.204;5.942;2023-08-06T02:04:54;0.25;;;0.25;;
15496;SDS011;7850;52.204;5.942;2023-08-06T02:05:54;0.30;;;0.30;;
15496;SDS011;7850;52.204;5.942;2023-08-06T02:06:54;0.30;;;0.30;;
15496;SDS011;7850;52.204;5.942;2023-08-06T02:07:54;0.28;;;0.28;;
15496;SDS011;7850;52.204;5.942;2023-08-06T02:08:54;0.29;;;0.29;;
15496;SDS011;7850;52.204;5.942;2023-08-06T02:09:54;0.20;;;0.20;;
15496;SDS011;7850;52.204;5.942;2023-08-06T02:10:54;0.37;;;0.37;;
15496;SDS011;7850;52.204;5.942;2023-08-06T02:11:54;0.26;;;0.26;;
15496;SDS011;7850;52.204;5.942;2023-08-06T02:12:54;0.30;;;0.30;;
15496;SDS011;7850;52.204;5.942;2023-08-06T02:13:54;0.31;;;0.31;;
15496;SDS011;7850;52.204;5.942;2023-08-06T02:14:54;0.30;;;0.30;;
15496;SDS011;7850;52.204;5.942;2023-08-06T02:15:54;0.26;;;0.26;;
15496;SDS011;7850;52.204;5.942;2023-08-06T02:16:54;0.22;;;0.22;;
15496;SDS011;7850;52.204;5.942;2023-08-06T02:17:55;0.30;;;0.30;;
15496;SDS011;7850;52.204;5.942;2023-08-06T02:18:55;0.30;;;0.30;;
15496;SDS011;7850;52.204;5.942;2023-08-06T02:19:55;0.20;;;0.20;;
15496;SDS011;7850;52.204;5.942;2023-08-06T02:20:55;0.20;;;0.20;;
15496;SDS011;7850;52.204;5.942;2023-08-06T02:21:55;0.24;;;0.24;;
15496;SDS011;7850;52.204;5.942;2023-08-06T02:22:55;0.47;;;0.47;;
15496;SDS011;7850;52.204;5.942;2023-08-06T02:23:55;0.40;;;0.40;;
15496;SDS011;7850;52.204;5.942;2023-08-06T02:24:55;0.22;;;0.22;;
15496;SDS011;7850;52.204;5.942;2023-08-06T02:25:57;0.25;;;0.25;;
15496;SDS011;7850;52.204;5.942;2023-08-06T02:26:55;0.25;;;0.25;;
15496;SDS011;7850;52.204;5.942;2023-08-06T02:27:55;0.22;;;0.22;;
15496;SDS011;7850;52.204;5.942;2023-08-06T02:28:55;0.35;;;0.35;;
15496;SDS011;7850;52.204;5.942;2023-08-06T02:29:55;0.40;;;0.40;;
15496;SDS011;7850;52.204;5.942;2023-08-06T02:30:55;0.40;;;0.40;;
15496;SDS011;7850;52.204;5.942;2023-08-06T02:31:56;0.37;;;0.37;;
15496;SDS011;7850;52.204;5.942;2023-08-06T02:32:56;0.54;;;0.54;;
15496;SDS011;7850;52.204;5.942;2023-08-06T02:33:56;0.22;;;0.22;;
15496;SDS011;7850;52.204;5.942;2023-08-06T02:34:56;0.27;;;0.27;;
15496;SDS011;7850;52.204;5.942;2023-08-06T02:35:59;0.20;;;0.20;;
15496;SDS011;7850;52.204;5.942;2023-08-06T02:36:56;0.20;;;0.20;;
15496;SDS011;7850;52.204;5.942;2023-08-06T02:37:56;0.20;;;0.20;;
15496;SDS011;7850;52.204;5.942;2023-08-06T02:38:56;0.21;;;0.21;;
15496;SDS011;7850;52.204;5.942;2023-08-06T02:39:56;0.30;;;0.30;;
15496;SDS011;7850;52.204;5.942;2023-08-06T02:40:56;0.20;;;0.20;;
15496;SDS011;7850;52.204;5.942;2023-08-06T02:41:56;0.20;;;0.20;;
15496;SDS011;7850;52.204;5.942;2023-08-06T02:42:56;0.46;;;0.46;;
15496;SDS011;7850;52.204;5.942;2023-08-06T02:43:56;0.27;;;0.27;;
15496;SDS011;7850;52.204;5.942;2023-08-06T02:44:56;0.21;;;0.21;;
15496;SDS011;7850;52.204;5.942;2023-08-06T02:46:15;0.27;;;0.27;;
15496;SDS011;7850;52.204;5.942;2023-08-06T02:47:15;0.31;;;0.31;;
15496;SDS011;7850;52.204;5.942;2023-08-06T02:48:15;0.25;;;0.25;;
15496;SDS011;7850;52.204;5.942;2023-08-06T02:49:15;0.42;;;0.42;;
15496;SDS011;7850;52.204;5.942;2023-08-06T02:50:15;0.30;;;0.30;;
15496;SDS011;7850;52.204;5.942;2023-08-06T02:51:15;0.30;;;0.30;;
15496;SDS011;7850;52.204;5.942;2023-08-06T02:52:15;0.26;;;0.26;;
15496;SDS011;7850;52.204;5.942;2023-08-06T02:53:15;0.39;;;0.39;;
15496;SDS011;7850;52.204;5.942;2023-08-06T02:54:15;0.20;;;0.20;;
15496;SDS011;7850;52.204;5.942;2023-08-06T02:55:16;0.23;;;0.23;;
15496;SDS011;7850;52.204;5.942;2023-08-06T02:56:16;0.20;;;0.20;;
15496;SDS011;7850;52.204;5.942;2023-08-06T02:57:16;0.20;;;0.20;;
15496;SDS011;7850;52.204;5.942;2023-08-06T02:58:16;0.29;;;0.29;;
15496;SDS011;7850;52.204;5.942;2023-08-06T02:59:16;0.20;;;0.20;;
15496;SDS011;7850;52.204;5.942;2023-08-06T03:00:16;0.24;;;0.24;;
15496;SDS011;7850;52.204;5.942;2023-08-06T03:01:16;0.25;;;0.25;;
15496;SDS011;7850;52.204;5.942;2023-08-06T03:02:16;0.27;;;0.27;;
15496;SDS011;7850;52.204;5.942;2023-08-06T03:03:16;0.30;;;0.30;;
15496;SDS011;7850;52.204;5.942;2023-08-06T03:04:16;0.30;;;0.30;;
15496;SDS011;7850;52.204;5.942;2023-08-06T03:05:16;0.20;;;0.20;;
15496;SDS011;7850;52.204;5.942;2023-08-06T03:06:16;0.20;;;0.20;;
15496;SDS011;7850;52.204;5.942;2023-08-06T03:07:16;0.20;;;0.20;;
15496;SDS011;7850;52.204;5.942;2023-08-06T03:08:16;0.24;;;0.24;;
15496;SDS011;7850;52.204;5.942;2023-08-06T03:09:16;0.70;;;0.70;;
15496;SDS011;7850;52.204;5.942;2023-08-06T03:10:17;0.72;;;0.72;;
15496;SDS011;7850;52.204;5.942;2023-08-06T03:11:17;0.80;;;0.80;;
15496;SDS011;7850;52.204;5.942;2023-08-06T03:12:17;0.62;;;0.62;;
15496;SDS011;7850;52.204;5.942;2023-08-06T03:13:17;0.83;;;0.83;;
15496;SDS011;7850;52.204;5.942;2023-08-06T03:14:17;0.71;;;0.71;;
15496;SDS011;7850;52.204;5.942;2023-08-06T03:15:17;0.70;;;0.70;;
15496;SDS011;7850;52.204;5.942;2023-08-06T03:16:17;0.68;;;0.68;;
15496;SDS011;7850;52.204;5.942;2023-08-06T03:17:17;0.75;;;0.75;;
15496;SDS011;7850;52.204;5.942;2023-08-06T03:18:17;0.80;;;0.80;;
15496;SDS011;7850;52.204;5.942;2023-08-06T03:19:17;0.70;;;0.70;;
15496;SDS011;7850;52.204;5.942;2023-08-06T03:20:17;0.70;;;0.70;;
15496;SDS011;7850;52.204;5.942;2023-08-06T03:21:17;0.70;;;0.70;;
15496;SDS011;7850;52.204;5.942;2023-08-06T03:22:17;0.63;;;0.63;;
15496;SDS011;7850;52.204;5.942;2023-08-06T03:23:17;0.24;;;0.24;;
15496;SDS011;7850;52.204;5.942;2023-08-06T03:24:17;0.30;;;0.30;;
15496;SDS011;7850;52.204;5.942;2023-08-06T03:25:17;0.20;;;0.20;;
15496;SDS011;7850;52.204;5.942;2023-08-06T03:26:18;0.26;;;0.26;;
15496;SDS011;7850;52.204;5.942;2023-08-06T03:27:18;0.23;;;0.23;;
15496;SDS011;7850;52.204;5.942;2023-08-06T03:28:18;0.20;;;0.20;;
15496;SDS011;7850;52.204;5.942;2023-08-06T03:29:18;0.27;;;0.27;;
15496;SDS011;7850;52.204;5.942;2023-08-06T03:30:18;0.28;;;0.28;;
15496;SDS011;7850;52.204;5.942;2023-08-06T03:31:18;0.22;;;0.22;;
15496;SDS011;7850;52.204;5.942;2023-08-06T03:32:18;0.20;;;0.20;;
15496;SDS011;7850;52.204;5.942;2023-08-06T03:33:18;0.30;;;0.30;;
15496;SDS011;7850;52.204;5.942;2023-08-06T03:34:18;0.24;;;0.24;;
15496;SDS011;7850;52.204;5.942;2023-08-06T03:35:18;0.25;;;0.25;;
15496;SDS011;7850;52.204;5.942;2023-08-06T03:36:19;0.20;;;0.20;;
15496;SDS011;7850;52.204;5.942;2023-08-06T03:37:18;0.21;;;0.21;;
15496;SDS011;7850;52.204;5.942;2023-08-06T03:38:18;0.20;;;0.20;;
15496;SDS011;7850;52.204;5.942;2023-08-06T03:39:18;0.20;;;0.20;;
15496;SDS011;7850;52.204;5.942;2023-08-06T03:40:18;0.20;;;0.20;;
15496;SDS011;7850;52.204;5.942;2023-08-06T03:41:19;0.20;;;0.20;;
15496;SDS011;7850;52.204;5.942;2023-08-06T03:42:19;0.20;;;0.20;;
15496;SDS011;7850;52.204;5.942;2023-08-06T03:43:19;0.20;;;0.20;;
15496;SDS011;7850;52.204;5.942;2023-08-06T03:44:19;0.20;;;0.20;;
15496;SDS011;7850;52.204;5.942;2023-08-06T03:45:19;0.20;;;0.20;;
15496;SDS011;7850;52.204;5.942;2023-08-06T03:46:19;0.20;;;0.20;;
15496;SDS011;7850;52.204;5.942;2023-08-06T03:47:19;0.30;;;0.30;;
15496;SDS011;7850;52.204;5.942;2023-08-06T03:48:19;0.25;;;0.25;;
15496;SDS011;7850;52.204;5.942;2023-08-06T03:49:19;0.28;;;0.28;;
15496;SDS011;7850;52.204;5.942;2023-08-06T03:50:19;0.37;;;0.37;;
15496;SDS011;7850;52.204;5.942;2023-08-06T03:51:19;0.20;;;0.20;;
15496;SDS011;7850;52.204;5.942;2023-08-06T03:52:19;0.20;;;0.20;;
15496;SDS011;7850;52.204;5.942;2023-08-06T03:53:19;0.21;;;0.21;;
15496;SDS011;7850;52.204;5.942;2023-08-06T03:54:19;0.26;;;0.26;;
15496;SDS011;7850;52.204;5.942;2023-08-06T03:55:20;0.30;;;0.30;;
15496;SDS011;7850;52.204;5.942;2023-08-06T03:56:20;0.22;;;0.22;;
15496;SDS011;7850;52.204;5.942;2023-08-06T03:57:20;0.30;;;0.30;;
15496;SDS011;7850;52.204;5.942;2023-08-06T03:58:20;0.30;;;0.30;;
15496;SDS011;7850;52.204;5.942;2023-08-06T03:59:20;0.22;;;0.22;;
15496;SDS011;7850;52.204;5.942;2023-08-06T04:00:20;0.21;;;0.21;;
15496;SDS011;7850;52.204;5.942;2023-08-06T04:01:20;0.29;;;0.29;;
15496;SDS011;7850;52.204;5.942;2023-08-06T04:02:20;0.26;;;0.26;;
15496;SDS011;7850;52.204;5.942;2023-08-06T04:03:20;0.30;;;0.30;;
15496;SDS011;7850;52.204;5.942;2023-08-06T04:04:20;0.24;;;0.24;;
15496;SDS011;7850;52.204;5.942;2023-08-06T04:05:20;0.30;;;0.30;;
15496;SDS011;7850;52.204;5.942;2023-08-06T04:06:20;0.23;;;0.23;;
15496;SDS011;7850;52.204;5.942;2023-08-06T04:07:20;0.30;;;0.30;;
15496;SDS011;7850;52.204;5.942;2023-08-06T04:08:20;0.23;;;0.23;;
15496;SDS011;7850;52.204;5.942;2023-08-06T04:09:21;0.25;;;0.25;;
15496;SDS011;7850;52.204;5.942;2023-08-06T04:10:21;0.20;;;0.20;;
15496;SDS011;7850;52.204;5.942;2023-08-06T04:11:21;0.20;;;0.20;;
15496;SDS011;7850;52.204;5.942;2023-08-06T04:12:21;0.20;;;0.20;;
15496;SDS011;7850;52.204;5.942;2023-08-06T04:13:21;0.30;;;0.30;;
15496;SDS011;7850;52.204;5.942;2023-08-06T04:14:21;0.29;;;0.29;;
15496;SDS011;7850;52.204;5.942;2023-08-06T04:15:21;0.23;;;0.23;;
15496;SDS011;7850;52.204;5.942;2023-08-06T04:16:21;0.43;;;0.43;;
15496;SDS011;7850;52.204;5.942;2023-08-06T04:17:21;0.70;;;0.70;;
15496;SDS011;7850;52.204;5.942;2023-08-06T04:18:21;0.71;;;0.71;;
15496;SDS011;7850;52.204;5.942;2023-08-06T04:19:21;0.64;;;0.64;;
15496;SDS011;7850;52.204;5.942;2023-08-06T04:20:21;0.70;;;0.70;;
15496;SDS011;7850;52.204;5.942;2023-08-06T04:21:21;0.71;;;0.71;;
15496;SDS011;7850;52.204;5.942;2023-08-06T04:22:21;0.70;;;0.70;;
15496;SDS011;7850;52.204;5.942;2023-08-06T04:23:21;0.70;;;0.70;;
15496;SDS011;7850;52.204;5.942;2023-08-06T04:24:22;0.70;;;0.70;;
15496;SDS011;7850;52.204;5.942;2023-08-06T04:25:22;0.80;;;0.80;;
15496;SDS011;7850;52.204;5.942;2023-08-06T04:26:22;0.90;;;0.90;;
15496;SDS011;7850;52.204;5.942;2023-08-06T04:27:22;0.77;;;0.77;;
15496;SDS011;7850;52.204;5.942;2023-08-06T04:28:22;0.79;;;0.79;;
15496;SDS011;7850;52.204;5.942;2023-08-06T04:29:22;0.66;;;0.66;;
15496;SDS011;7850;52.204;5.942;2023-08-06T04:30:22;0.44;;;0.44;;
15496;SDS011;7850;52.204;5.942;2023-08-06T04:31:22;0.38;;;0.38;;
15496;SDS011;7850;52.204;5.942;2023-08-06T04:32:22;0.38;;;0.38;;
15496;SDS011;7850;52.204;5.942;2023-08-06T04:33:22;0.46;;;0.46;;
15496;SDS011;7850;52.204;5.942;2023-08-06T04:34:22;0.40;;;0.40;;
15496;SDS011;7850;52.204;5.942;2023-08-06T04:35:22;0.49;;;0.49;;
15496;SDS011;7850;52.204;5.942;2023-08-06T04:36:22;0.50;;;0.50;;
15496;SDS011;7850;52.204;5.942;2023-08-06T04:37:22;0.60;;;0.60;;
15496;SDS011;7850;52.204;5.942;2023-08-06T04:38:23;0.51;;;0.51;;
15496;SDS011;7850;52.204;5.942;2023-08-06T04:39:23;0.50;;;0.50;;
15496;SDS011;7850;52.204;5.942;2023-08-06T04:40:23;0.46;;;0.46;;
15496;SDS011;7850;52.204;5.942;2023-08-06T04:41:23;0.46;;;0.46;;
15496;SDS011;7850;52.204;5.942;2023-08-06T04:42:23;0.78;;;0.78;;
15496;SDS011;7850;52.204;5.942;2023-08-06T04:43:23;0.80;;;0.80;;
15496;SDS011;7850;52.204;5.942;2023-08-06T04:44:23;0.46;;;0.46;;
15496;SDS011;7850;52.204;5.942;2023-08-06T04:45:23;0.40;;;0.40;;
15496;SDS011;7850;52.204;5.942;2023-08-06T04:46:23;0.38;;;0.38;;
15496;SDS011;7850;52.204;5.942;2023-08-06T04:47:23;0.40;;;0.40;;
15496;SDS011;7850;52.204;5.942;2023-08-06T04:48:23;0.30;;;0.30;;
15496;SDS011;7850;52.204;5.942;2023-08-06T04:49:24;0.30;;;0.30;;
15496;SDS011;7850;52.204;5.942;2023-08-06T04:50:23;0.38;;;0.38;;
15496;SDS011;7850;52.204;5.942;2023-08-06T04:51:23;0.30;;;0.30;;
15496;SDS011;7850;52.204;5.942;2023-08-06T04:52:23;0.31;;;0.31;;
15496;SDS011;7850;52.204;5.942;2023-08-06T04:53:23;0.38;;;0.38;;
15496;SDS011;7850;52.204;5.942;2023-08-06T04:54:24;0.30;;;0.30;;
15496;SDS011;7850;52.204;5.942;2023-08-06T04:55:24;0.40;;;0.40;;
15496;SDS011;7850;52.204;5.942;2023-08-06T04:56:24;0.40;;;0.40;;
15496;SDS011;7850;52.204;5.942;2023-08-06T04:57:24;0.30;;;0.30;;
15496;SDS011;7850;52.204;5.942;2023-08-06T04:58:24;0.40;;;0.40;;
15496;SDS011;7850;52.204;5.942;2023-08-06T04:59:24;0.40;;;0.40;;
15496;SDS011;7850;52.204;5.942;2023-08-06T05:00:24;0.40;;;0.40;;
15496;SDS011;7850;52.204;5.942;2023-08-06T05:01:24;0.40;;;0.40;;
15496;SDS011;7850;52.204;5.942;2023-08-06T05:02:24;0.30;;;0.30;;
15496;SDS011;7850;52.204;5.942;2023-08-06T05:03:24;0.34;;;0.34;;
15496;SDS011;7850;52.204;5.942;2023-08-06T05:04:24;0.32;;;0.32;;
15496;SDS011;7850;52.204;5.942;2023-08-06T05:05:24;0.30;;;0.30;;
15496;SDS011;7850;52.204;5.942;2023-08-06T05:06:24;0.32;;;0.32;;
15496;SDS011;7850;52.204;5.942;2023-08-06T05:07:24;0.38;;;0.38;;
15496;SDS011;7850;52.204;5.942;2023-08-06T05:08:24;0.40;;;0.40;;
15496;SDS011;7850;52.204;5.942;2023-08-06T05:09:24;0.37;;;0.37;;
15496;SDS011;7850;52.204;5.942;2023-08-06T05:10:25;0.33;;;0.33;;
15496;SDS011;7850;52.204;5.942;2023-08-06T05:11:25;0.39;;;0.39;;
15496;SDS011;7850;52.204;5.942;2023-08-06T05:12:25;0.30;;;0.30;;
15496;SDS011;7850;52.204;5.942;2023-08-06T05:13:25;0.40;;;0.40;;
15496;SDS011;7850;52.204;5.942;2023-08-06T05:14:25;0.40;;;0.40;;
15496;SDS011;7850;52.204;5.942;2023-08-06T05:15:25;0.30;;;0.30;;
15496;SDS011;7850;52.204;5.942;2023-08-06T05:16:25;0.40;;;0.40;;
15496;SDS011;7850;52.204;5.942;2023-08-06T05:17:25;0.34;;;0.34;;
15496;SDS011;7850;52.204;5.942;2023-08-06T05:18:25;0.31;;;0.31;;
15496;SDS011;7850;52.204;5.942;2023-08-06T05:19:25;0.38;;;0.38;;
15496;SDS011;7850;52.204;5.942;2023-08-06T05:20:25;0.40;;;0.40;;
15496;SDS011;7850;52.204;5.942;2023-08-06T05:21:25;0.40;;;0.40;;
15496;SDS011;7850;52.204;5.942;2023-08-06T05:22:25;0.40;;;0.40;;
15496;SDS011;7850;52.204;5.942;2023-08-06T05:23:25;0.40;;;0.40;;
15496;SDS011;7850;52.204;5.942;2023-08-06T05:24:25;0.40;;;0.40;;
15496;SDS011;7850;52.204;5.942;2023-08-06T05:25:25;0.40;;;0.40;;
15496;SDS011;7850;52.204;5.942;2023-08-06T05:26:26;0.40;;;0.40;;
15496;SDS011;7850;52.204;5.942;2023-08-06T05:27:26;0.30;;;0.30;;
15496;SDS011;7850;52.204;5.942;2023-08-06T05:28:26;0.40;;;0.40;;
15496;SDS011;7850;52.204;5.942;2023-08-06T05:29:26;0.29;;;0.29;;
15496;SDS011;7850;52.204;5.942;2023-08-06T05:30:26;0.24;;;0.24;;
15496;SDS011;7850;52.204;5.942;2023-08-06T05:31:26;0.26;;;0.26;;
15496;SDS011;7850;52.204;5.942;2023-08-06T05:32:26;0.30;;;0.30;;
15496;SDS011;7850;52.204;5.942;2023-08-06T05:33:26;0.25;;;0.25;;
15496;SDS011;7850;52.204;5.942;2023-08-06T05:34:26;0.30;;;0.30;;
15496;SDS011;7850;52.204;5.942;2023-08-06T05:35:26;0.21;;;0.21;;
15496;SDS011;7850;52.204;5.942;2023-08-06T05:36:26;0.24;;;0.24;;
15496;SDS011;7850;52.204;5.942;2023-08-06T05:37:26;0.20;;;0.20;;
15496;SDS011;7850;52.204;5.942;2023-08-06T05:38:26;0.20;;;0.20;;
15496;SDS011;7850;52.204;5.942;2023-08-06T05:39:26;0.20;;;0.20;;
15496;SDS011;7850;52.204;5.942;2023-08-06T05:40:26;0.29;;;0.29;;
15496;SDS011;7850;52.204;5.942;2023-08-06T05:41:27;0.20;;;0.20;;
15496;SDS011;7850;52.204;5.942;2023-08-06T05:42:27;0.20;;;0.20;;
15496;SDS011;7850;52.204;5.942;2023-08-06T05:43:27;0.27;;;0.27;;
15496;SDS011;7850;52.204;5.942;2023-08-06T05:44:27;0.20;;;0.20;;
15496;SDS011;7850;52.204;5.942;2023-08-06T05:45:27;0.20;;;0.20;;
15496;SDS011;7850;52.204;5.942;2023-08-06T05:46:27;0.23;;;0.23;;
15496;SDS011;7850;52.204;5.942;2023-08-06T05:47:27;0.29;;;0.29;;
15496;SDS011;7850;52.204;5.942;2023-08-06T05:48:27;0.38;;;0.38;;
15496;SDS011;7850;52.204;5.942;2023-08-06T05:49:27;0.34;;;0.34;;
15496;SDS011;7850;52.204;5.942;2023-08-06T05:50:27;0.30;;;0.30;;
15496;SDS011;7850;52.204;5.942;2023-08-06T05:51:27;0.30;;;0.30;;
15496;SDS011;7850;52.204;5.942;2023-08-06T05:52:27;0.34;;;0.34;;
15496;SDS011;7850;52.204;5.942;2023-08-06T05:53:27;0.40;;;0.40;;
15496;SDS011;7850;52.204;5.942;2023-08-06T05:54:28;0.40;;;0.40;;
15496;SDS011;7850;52.204;5.942;2023-08-06T05:55:27;0.37;;;0.37;;
15496;SDS011;7850;52.204;5.942;2023-08-06T05:56:28;0.47;;;0.47;;
15496;SDS011;7850;52.204;5.942;2023-08-06T05:57:28;0.40;;;0.40;;
15496;SDS011;7850;52.204;5.942;2023-08-06T05:58:28;0.40;;;0.40;;
15496;SDS011;7850;52.204;5.942;2023-08-06T05:59:28;0.33;;;0.33;;
15496;SDS011;7850;52.204;5.942;2023-08-06T06:00:28;0.30;;;0.30;;
15496;SDS011;7850;52.204;5.942;2023-08-06T06:01:28;0.44;;;0.44;;
15496;SDS011;7850;52.204;5.942;2023-08-06T06:02:28;0.60;;;0.60;;
15496;SDS011;7850;52.204;5.942;2023-08-06T06:03:28;0.40;;;0.40;;
15496;SDS011;7850;52.204;5.942;2023-08-06T06:04:28;0.42;;;0.42;;
15496;SDS011;7850;52.204;5.942;2023-08-06T06:05:28;0.30;;;0.30;;
15496;SDS011;7850;52.204;5.942;2023-08-06T06:06:28;0.31;;;0.31;;
15496;SDS011;7850;52.204;5.942;2023-08-06T06:07:28;0.30;;;0.30;;